sensor_id;sensor_type;location;lat;lon;timestamp;P1;durP1;ratioP1;P2;durP2;ratioP2
26718;SDS011;14326;50.794;6.060;2023-06-14T10:34:53;10.35;;;2.90;;
26718;SDS011;14326;50.794;6.060;2023-06-14T10:37:20;12.02;;;3.10;;
26718;SDS011;14326;50.794;6.060;2023-06-14T10:39:46;10.55;;;3.00;;
26718;SDS011;14326;50.794;6.060;2023-06-14T10:42:13;9.27;;;3.20;;
26718;SDS011;14326;50.794;6.060;2023-06-14T10:44:42;10.80;;;3.38;;
26718;SDS011;14326;50.794;6.060;2023-06-14T10:47:09;10.10;;;3.25;;
26718;SDS011;14326;50.794;6.060;2023-06-14T10:49:37;10.05;;;2.97;;
26718;SDS011;14326;50.794;6.060;2023-06-14T10:52:09;7.67;;;2.50;;
26718;SDS011;14326;50.794;6.060;2023-06-14T10:57:23;10.63;;;2.88;;
26718;SDS011;14326;50.794;6.060;2023-06-14T10:59:50;7.25;;;2.33;;
26718;SDS011;14326;50.794;6.060;2023-06-14T11:02:20;9.27;;;2.50;;
26718;SDS011;14326;50.794;6.060;2023-06-14T11:04:52;7.60;;;2.30;;
26718;SDS011;14326;50.794;6.060;2023-06-14T11:07:25;6.53;;;2.33;;
26718;SDS011;14326;50.794;6.060;2023-06-14T11:10:04;7.93;;;2.40;;
26718;SDS011;14326;50.794;6.060;2023-06-14T11:12:31;9.03;;;2.30;;
26718;SDS011;14326;50.794;6.060;2023-06-14T11:14:58;7.53;;;2.40;;
26718;SDS011;14326;50.794;6.060;2023-06-14T11:17:25;7.33;;;2.33;;
26718;SDS011;14326;50.794;6.060;2023-06-14T11:20:06;10.60;;;2.60;;
26718;SDS011;14326;50.794;6.060;2023-06-14T11:22:39;6.22;;;2.33;;
26718;SDS011;14326;50.794;6.060;2023-06-14T11:25:08;8.43;;;2.60;;
26718;SDS011;14326;50.794;6.060;2023-06-14T11:27:34;9.15;;;2.50;;
26718;SDS011;14326;50.794;6.060;2023-06-14T11:30:01;6.97;;;2.50;;
26718;SDS011;14326;50.794;6.060;2023-06-14T11:32:28;8.70;;;2.50;;
26718;SDS011;14326;50.794;6.060;2023-06-14T11:34:57;9.63;;;2.80;;
26718;SDS011;14326;50.794;6.060;2023-06-14T11:37:24;8.30;;;2.40;;
26718;SDS011;14326;50.794;6.060;2023-06-14T11:39:52;9.17;;;3.10;;
26718;SDS011;14326;50.794;6.060;2023-06-14T11:42:21;9.70;;;2.70;;
26718;SDS011;14326;50.794;6.060;2023-06-14T11:44:49;9.43;;;2.60;;
26718;SDS011;14326;50.794;6.060;2023-06-14T11:47:15;9.80;;;2.60;;
26718;SDS011;14326;50.794;6.060;2023-06-14T11:49:41;10.17;;;2.63;;
26718;SDS011;14326;50.794;6.060;2023-06-14T11:52:08;10.05;;;2.72;;
26718;SDS011;14326;50.794;6.060;2023-06-14T11:54:34;13.20;;;2.80;;
26718;SDS011;14326;50.794;6.060;2023-06-14T11:57:02;12.27;;;4.30;;
26718;SDS011;14326;50.794;6.060;2023-06-14T11:59:29;10.75;;;2.80;;
26718;SDS011;14326;50.794;6.060;2023-06-14T12:01:56;14.20;;;3.38;;
26718;SDS011;14326;50.794;6.060;2023-06-14T12:04:23;8.80;;;2.55;;
26718;SDS011;14326;50.794;6.060;2023-06-14T12:06:49;10.38;;;2.80;;
26718;SDS011;14326;50.794;6.060;2023-06-14T12:09:18;9.53;;;2.50;;
26718;SDS011;14326;50.794;6.060;2023-06-14T12:11:44;11.30;;;2.42;;
26718;SDS011;14326;50.794;6.060;2023-06-14T12:14:12;8.30;;;2.60;;
26718;SDS011;14326;50.794;6.060;2023-06-14T12:16:39;9.35;;;2.70;;
26718;SDS011;14326;50.794;6.060;2023-06-14T12:19:11;9.35;;;2.45;;
26718;SDS011;14326;50.794;6.060;2023-06-14T12:21:38;9.82;;;2.60;;
26718;SDS011;14326;50.794;6.060;2023-06-14T12:24:05;13.80;;;2.92;;
26718;SDS011;14326;50.794;6.060;2023-06-14T12:26:32;8.90;;;2.50;;
26718;SDS011;14326;50.794;6.060;2023-06-14T12:28:58;11.38;;;2.63;;
26718;SDS011;14326;50.794;6.060;2023-06-14T12:31:26;13.20;;;2.55;;
26718;SDS011;14326;50.794;6.060;2023-06-14T12:33:54;13.60;;;2.67;;
26718;SDS011;14326;50.794;6.060;2023-06-14T12:36:21;9.98;;;2.33;;
26718;SDS011;14326;50.794;6.060;2023-06-14T12:38:47;9.43;;;2.60;;
26718;SDS011;14326;50.794;6.060;2023-06-14T12:41:14;9.82;;;2.60;;
26718;SDS011;14326;50.794;6.060;2023-06-14T12:43:40;11.38;;;2.40;;
26718;SDS011;14326;50.794;6.060;2023-06-14T12:46:07;7.95;;;2.50;;
26718;SDS011;14326;50.794;6.060;2023-06-14T12:48:35;11.73;;;2.83;;
26718;SDS011;14326;50.794;6.060;2023-06-14T12:51:01;11.77;;;2.60;;
26718;SDS011;14326;50.794;6.060;2023-06-14T12:53:28;12.07;;;2.88;;
26718;SDS011;14326;50.794;6.060;2023-06-14T12:55:54;12.40;;;2.50;;
26718;SDS011;14326;50.794;6.060;2023-06-14T12:58:20;12.52;;;2.58;;
26718;SDS011;14326;50.794;6.060;2023-06-14T13:00:48;12.15;;;2.75;;
26718;SDS011;14326;50.794;6.060;2023-06-14T13:03:15;13.73;;;2.70;;
26718;SDS011;14326;50.794;6.060;2023-06-14T13:05:43;9.52;;;2.67;;
26718;SDS011;14326;50.794;6.060;2023-06-14T13:08:09;10.30;;;2.58;;
26718;SDS011;14326;50.794;6.060;2023-06-14T13:10:36;16.30;;;6.20;;
26718;SDS011;14326;50.794;6.060;2023-06-14T13:13:03;9.98;;;2.72;;
26718;SDS011;14326;50.794;6.060;2023-06-14T13:15:29;10.03;;;2.70;;
26718;SDS011;14326;50.794;6.060;2023-06-14T13:17:56;12.00;;;2.53;;
26718;SDS011;14326;50.794;6.060;2023-06-14T13:20:22;10.38;;;2.70;;
26718;SDS011;14326;50.794;6.060;2023-06-14T13:22:50;11.40;;;2.75;;
26718;SDS011;14326;50.794;6.060;2023-06-14T13:25:27;12.02;;;2.60;;
26718;SDS011;14326;50.794;6.060;2023-06-14T13:28:01;12.88;;;2.83;;
26718;SDS011;14326;50.794;6.060;2023-06-14T13:30:27;11.18;;;2.67;;
26718;SDS011;14326;50.794;6.060;2023-06-14T13:32:53;10.18;;;2.65;;
26718;SDS011;14326;50.794;6.060;2023-06-14T13:35:21;7.38;;;2.45;;
26718;SDS011;14326;50.794;6.060;2023-06-14T13:37:47;10.00;;;2.38;;
26718;SDS011;14326;50.794;6.060;2023-06-14T13:40:15;11.63;;;2.70;;
26718;SDS011;14326;50.794;6.060;2023-06-14T13:42:41;11.70;;;2.80;;
26718;SDS011;14326;50.794;6.060;2023-06-14T13:45:08;12.00;;;2.80;;
26718;SDS011;14326;50.794;6.060;2023-06-14T13:47:35;8.25;;;2.60;;
26718;SDS011;14326;50.794;6.060;2023-06-14T13:50:01;10.05;;;2.60;;
26718;SDS011;14326;50.794;6.060;2023-06-14T13:52:28;8.35;;;2.65;;
26718;SDS011;14326;50.794;6.060;2023-06-14T13:54:54;9.77;;;2.65;;
26718;SDS011;14326;50.794;6.060;2023-06-14T13:57:26;12.98;;;3.10;;
26718;SDS011;14326;50.794;6.060;2023-06-14T13:59:53;9.13;;;2.60;;
26718;SDS011;14326;50.794;6.060;2023-06-14T14:02:20;10.68;;;2.70;;
26718;SDS011;14326;50.794;6.060;2023-06-14T14:04:59;9.80;;;2.72;;
26718;SDS011;14326;50.794;6.060;2023-06-14T14:07:50;11.88;;;2.92;;
26718;SDS011;14326;50.794;6.060;2023-06-14T14:10:30;8.70;;;2.60;;
26718;SDS011;14326;50.794;6.060;2023-06-14T14:12:58;8.63;;;2.60;;
26718;SDS011;14326;50.794;6.060;2023-06-14T14:15:24;9.15;;;2.60;;
26718;SDS011;14326;50.794;6.060;2023-06-14T14:17:53;9.15;;;2.95;;
26718;SDS011;14326;50.794;6.060;2023-06-14T14:20:22;12.15;;;2.83;;
26718;SDS011;14326;50.794;6.060;2023-06-14T14:22:48;9.80;;;2.72;;
26718;SDS011;14326;50.794;6.060;2023-06-14T14:25:15;8.65;;;2.80;;
26718;SDS011;14326;50.794;6.060;2023-06-14T14:27:41;9.55;;;3.00;;
26718;SDS011;14326;50.794;6.060;2023-06-14T14:30:09;11.20;;;2.70;;
26718;SDS011;14326;50.794;6.060;2023-06-14T14:32:36;10.13;;;2.53;;
26718;SDS011;14326;50.794;6.060;2023-06-14T14:35:03;9.80;;;2.90;;
26718;SDS011;14326;50.794;6.060;2023-06-14T14:37:29;9.43;;;2.90;;
26718;SDS011;14326;50.794;6.060;2023-06-14T14:39:56;9.60;;;2.67;;
26718;SDS011;14326;50.794;6.060;2023-06-14T14:42:22;9.27;;;2.90;;
26718;SDS011;14326;50.794;6.060;2023-06-14T14:44:48;10.27;;;3.05;;
26718;SDS011;14326;50.794;6.060;2023-06-14T14:47:16;8.50;;;2.78;;
26718;SDS011;14326;50.794;6.060;2023-06-14T14:49:43;10.68;;;3.20;;
26718;SDS011;14326;50.794;6.060;2023-06-14T14:52:09;9.38;;;2.75;;
26718;SDS011;14326;50.794;6.060;2023-06-14T14:54:38;7.63;;;2.60;;
26718;SDS011;14326;50.794;6.060;2023-06-14T14:57:04;11.73;;;3.08;;
26718;SDS011;14326;50.794;6.060;2023-06-14T14:59:31;7.38;;;2.65;;
26718;SDS011;14326;50.794;6.060;2023-06-14T15:01:58;12.37;;;2.80;;
26718;SDS011;14326;50.794;6.060;2023-06-14T15:04:26;9.75;;;2.90;;
26718;SDS011;14326;50.794;6.060;2023-06-14T15:06:52;8.77;;;3.10;;
26718;SDS011;14326;50.794;6.060;2023-06-14T15:09:18;6.90;;;2.55;;
26718;SDS011;14326;50.794;6.060;2023-06-14T15:11:47;7.75;;;2.63;;
26718;SDS011;14326;50.794;6.060;2023-06-14T15:14:16;7.43;;;2.80;;
26718;SDS011;14326;50.794;6.060;2023-06-14T15:16:42;11.33;;;2.40;;
26718;SDS011;14326;50.794;6.060;2023-06-14T15:19:11;9.65;;;2.75;;
26718;SDS011;14326;50.794;6.060;2023-06-14T15:21:42;10.00;;;2.92;;
26718;SDS011;14326;50.794;6.060;2023-06-14T15:24:08;9.20;;;2.78;;
26718;SDS011;14326;50.794;6.060;2023-06-14T15:26:35;7.68;;;2.72;;
26718;SDS011;14326;50.794;6.060;2023-06-14T15:29:01;9.82;;;2.70;;
26718;SDS011;14326;50.794;6.060;2023-06-14T15:34:13;9.25;;;2.67;;
26718;SDS011;14326;50.794;6.060;2023-06-14T15:36:46;7.47;;;2.50;;
26718;SDS011;14326;50.794;6.060;2023-06-14T15:39:13;8.07;;;2.60;;
26718;SDS011;14326;50.794;6.060;2023-06-14T15:41:39;8.83;;;2.27;;
26718;SDS011;14326;50.794;6.060;2023-06-14T15:44:06;8.65;;;2.42;;
26718;SDS011;14326;50.794;6.060;2023-06-14T15:46:33;8.90;;;2.53;;
26718;SDS011;14326;50.794;6.060;2023-06-14T15:48:59;8.80;;;2.25;;
26718;SDS011;14326;50.794;6.060;2023-06-14T15:51:25;7.60;;;2.50;;
26718;SDS011;14326;50.794;6.060;2023-06-14T15:53:53;5.55;;;2.30;;
26718;SDS011;14326;50.794;6.060;2023-06-14T15:56:20;6.35;;;2.22;;
26718;SDS011;14326;50.794;6.060;2023-06-14T15:58:46;8.40;;;2.33;;
26718;SDS011;14326;50.794;6.060;2023-06-14T16:01:14;8.70;;;2.20;;
26718;SDS011;14326;50.794;6.060;2023-06-14T16:03:40;10.32;;;2.30;;
26718;SDS011;14326;50.794;6.060;2023-06-14T16:06:06;9.30;;;2.40;;
26718;SDS011;14326;50.794;6.060;2023-06-14T16:08:33;8.23;;;2.35;;
26718;SDS011;14326;50.794;6.060;2023-06-14T16:11:01;9.07;;;2.53;;
26718;SDS011;14326;50.794;6.060;2023-06-14T16:13:27;8.18;;;2.58;;
26718;SDS011;14326;50.794;6.060;2023-06-14T16:15:59;6.15;;;2.40;;
26718;SDS011;14326;50.794;6.060;2023-06-14T16:18:26;10.57;;;3.30;;
26718;SDS011;14326;50.794;6.060;2023-06-14T16:20:52;9.15;;;2.33;;
26718;SDS011;14326;50.794;6.060;2023-06-14T16:23:22;9.00;;;2.33;;
26718;SDS011;14326;50.794;6.060;2023-06-14T16:25:48;6.17;;;2.00;;
26718;SDS011;14326;50.794;6.060;2023-06-14T16:28:16;6.78;;;2.30;;
26718;SDS011;14326;50.794;6.060;2023-06-14T16:30:42;7.80;;;2.20;;
26718;SDS011;14326;50.794;6.060;2023-06-14T16:33:09;7.13;;;2.05;;
26718;SDS011;14326;50.794;6.060;2023-06-14T16:35:36;7.72;;;2.30;;
26718;SDS011;14326;50.794;6.060;2023-06-14T16:38:04;8.47;;;2.17;;
26718;SDS011;14326;50.794;6.060;2023-06-14T16:40:37;8.67;;;2.30;;
26718;SDS011;14326;50.794;6.060;2023-06-14T16:43:03;5.85;;;2.30;;
26718;SDS011;14326;50.794;6.060;2023-06-14T16:45:31;9.30;;;2.50;;
26718;SDS011;14326;50.794;6.060;2023-06-14T16:47:57;10.43;;;2.80;;
26718;SDS011;14326;50.794;6.060;2023-06-14T16:50:24;8.55;;;2.30;;
26718;SDS011;14326;50.794;6.060;2023-06-14T16:52:50;11.57;;;2.65;;
26718;SDS011;14326;50.794;6.060;2023-06-14T16:55:30;12.07;;;2.87;;
26718;SDS011;14326;50.794;6.060;2023-06-14T16:57:59;8.48;;;2.25;;
26718;SDS011;14326;50.794;6.060;2023-06-14T17:00:26;11.10;;;2.42;;
26718;SDS011;14326;50.794;6.060;2023-06-14T17:02:53;8.95;;;2.47;;
26718;SDS011;14326;50.794;6.060;2023-06-14T17:05:27;5.83;;;2.23;;
26718;SDS011;14326;50.794;6.060;2023-06-14T17:07:54;6.32;;;2.30;;
26718;SDS011;14326;50.794;6.060;2023-06-14T17:10:29;9.40;;;2.63;;
26718;SDS011;14326;50.794;6.060;2023-06-14T17:12:55;6.67;;;2.30;;
26718;SDS011;14326;50.794;6.060;2023-06-14T17:15:22;8.10;;;2.33;;
26718;SDS011;14326;50.794;6.060;2023-06-14T17:17:48;10.63;;;2.42;;
26718;SDS011;14326;50.794;6.060;2023-06-14T17:20:26;6.65;;;2.50;;
26718;SDS011;14326;50.794;6.060;2023-06-14T17:23:13;9.02;;;2.83;;
26718;SDS011;14326;50.794;6.060;2023-06-14T17:25:47;9.73;;;2.88;;
26718;SDS011;14326;50.794;6.060;2023-06-14T17:28:13;11.67;;;3.00;;
26718;SDS011;14326;50.794;6.060;2023-06-14T17:30:52;7.93;;;2.60;;
26718;SDS011;14326;50.794;6.060;2023-06-14T17:33:32;8.35;;;2.70;;
26718;SDS011;14326;50.794;6.060;2023-06-14T17:36:00;7.13;;;2.60;;
26718;SDS011;14326;50.794;6.060;2023-06-14T17:38:26;7.80;;;2.40;;
26718;SDS011;14326;50.794;6.060;2023-06-14T17:40:54;7.20;;;2.50;;
26718;SDS011;14326;50.794;6.060;2023-06-14T17:43:20;7.93;;;2.55;;
26718;SDS011;14326;50.794;6.060;2023-06-14T17:45:48;9.20;;;2.83;;
26718;SDS011;14326;50.794;6.060;2023-06-14T17:51:00;8.73;;;2.60;;
26718;SDS011;14326;50.794;6.060;2023-06-14T17:53:27;10.00;;;2.80;;
26718;SDS011;14326;50.794;6.060;2023-06-14T17:55:53;8.40;;;2.50;;
26718;SDS011;14326;50.794;6.060;2023-06-14T17:58:20;10.07;;;2.95;;
26718;SDS011;14326;50.794;6.060;2023-06-14T18:00:47;7.35;;;2.50;;
26718;SDS011;14326;50.794;6.060;2023-06-14T18:03:13;8.43;;;2.60;;
26718;SDS011;14326;50.794;6.060;2023-06-14T18:05:43;5.78;;;2.40;;
26718;SDS011;14326;50.794;6.060;2023-06-14T18:08:11;6.43;;;2.35;;
26718;SDS011;14326;50.794;6.060;2023-06-14T18:10:37;7.90;;;2.75;;
26718;SDS011;14326;50.794;6.060;2023-06-14T18:13:04;8.13;;;2.35;;
26718;SDS011;14326;50.794;6.060;2023-06-14T18:15:35;8.10;;;2.37;;
26718;SDS011;14326;50.794;6.060;2023-06-14T18:18:09;6.95;;;2.40;;
26718;SDS011;14326;50.794;6.060;2023-06-14T18:20:35;7.72;;;2.45;;
26718;SDS011;14326;50.794;6.060;2023-06-14T18:23:01;6.80;;;2.47;;
26718;SDS011;14326;50.794;6.060;2023-06-14T18:25:29;6.60;;;2.67;;
26718;SDS011;14326;50.794;6.060;2023-06-14T18:27:55;8.77;;;2.63;;
26718;SDS011;14326;50.794;6.060;2023-06-14T18:30:22;9.48;;;3.17;;
26718;SDS011;14326;50.794;6.060;2023-06-14T18:32:48;7.45;;;2.60;;
26718;SDS011;14326;50.794;6.060;2023-06-14T18:35:15;10.88;;;2.78;;
26718;SDS011;14326;50.794;6.060;2023-06-14T18:37:41;8.30;;;2.58;;
26718;SDS011;14326;50.794;6.060;2023-06-14T18:40:08;10.32;;;3.15;;
26718;SDS011;14326;50.794;6.060;2023-06-14T18:42:36;8.83;;;2.63;;
26718;SDS011;14326;50.794;6.060;2023-06-14T18:45:03;9.00;;;2.72;;
26718;SDS011;14326;50.794;6.060;2023-06-14T18:47:29;6.90;;;2.55;;
26718;SDS011;14326;50.794;6.060;2023-06-14T18:49:56;7.25;;;2.42;;
26718;SDS011;14326;50.794;6.060;2023-06-14T18:52:22;7.18;;;2.50;;
26718;SDS011;14326;50.794;6.060;2023-06-14T18:54:54;7.32;;;2.60;;
26718;SDS011;14326;50.794;6.060;2023-06-14T18:57:21;8.20;;;2.65;;
26718;SDS011;14326;50.794;6.060;2023-06-14T18:59:48;6.70;;;2.35;;
26718;SDS011;14326;50.794;6.060;2023-06-14T19:02:15;8.38;;;2.67;;
26718;SDS011;14326;50.794;6.060;2023-06-14T19:04:44;6.85;;;2.70;;
26718;SDS011;14326;50.794;6.060;2023-06-14T19:07:10;7.97;;;3.20;;
26718;SDS011;14326;50.794;6.060;2023-06-14T19:09:37;6.72;;;2.38;;
26718;SDS011;14326;50.794;6.060;2023-06-14T19:12:03;6.55;;;2.63;;
26718;SDS011;14326;50.794;6.060;2023-06-14T19:14:30;6.67;;;2.60;;
26718;SDS011;14326;50.794;6.060;2023-06-14T19:16:58;6.17;;;2.47;;
26718;SDS011;14326;50.794;6.060;2023-06-14T19:19:24;10.88;;;2.70;;
26718;SDS011;14326;50.794;6.060;2023-06-14T19:21:51;8.45;;;2.67;;
26718;SDS011;14326;50.794;6.060;2023-06-14T19:24:35;8.93;;;2.83;;
26718;SDS011;14326;50.794;6.060;2023-06-14T19:27:15;8.63;;;2.65;;
26718;SDS011;14326;50.794;6.060;2023-06-14T19:29:46;10.55;;;2.85;;
26718;SDS011;14326;50.794;6.060;2023-06-14T19:32:26;8.65;;;2.72;;
26718;SDS011;14326;50.794;6.060;2023-06-14T19:35:09;7.57;;;2.55;;
26718;SDS011;14326;50.794;6.060;2023-06-14T19:37:57;6.10;;;2.70;;
26718;SDS011;14326;50.794;6.060;2023-06-14T19:40:43;10.30;;;3.10;;
26718;SDS011;14326;50.794;6.060;2023-06-14T19:43:10;7.65;;;2.78;;
26718;SDS011;14326;50.794;6.060;2023-06-14T19:45:36;8.35;;;2.90;;
26718;SDS011;14326;50.794;6.060;2023-06-14T19:48:04;9.38;;;2.60;;
26718;SDS011;14326;50.794;6.060;2023-06-14T19:50:31;7.43;;;2.35;;
26718;SDS011;14326;50.794;6.060;2023-06-14T19:52:57;6.07;;;2.67;;
26718;SDS011;14326;50.794;6.060;2023-06-14T19:55:32;8.00;;;2.70;;
26718;SDS011;14326;50.794;6.060;2023-06-14T19:58:05;9.57;;;2.83;;
26718;SDS011;14326;50.794;6.060;2023-06-14T20:00:31;12.57;;;2.85;;
26718;SDS011;14326;50.794;6.060;2023-06-14T20:02:58;7.50;;;2.45;;
26718;SDS011;14326;50.794;6.060;2023-06-14T20:05:26;9.73;;;2.83;;
26718;SDS011;14326;50.794;6.060;2023-06-14T20:07:52;9.13;;;3.40;;
26718;SDS011;14326;50.794;6.060;2023-06-14T20:10:19;9.07;;;3.08;;
26718;SDS011;14326;50.794;6.060;2023-06-14T20:12:45;12.10;;;3.20;;
26718;SDS011;14326;50.794;6.060;2023-06-14T20:15:11;12.30;;;3.17;;
26718;SDS011;14326;50.794;6.060;2023-06-14T20:17:38;11.85;;;2.90;;
26718;SDS011;14326;50.794;6.060;2023-06-14T20:20:05;9.77;;;2.92;;
26718;SDS011;14326;50.794;6.060;2023-06-14T20:22:32;10.05;;;2.88;;
26718;SDS011;14326;50.794;6.060;2023-06-14T20:25:03;9.05;;;2.90;;
26718;SDS011;14326;50.794;6.060;2023-06-14T20:27:29;10.07;;;2.92;;
26718;SDS011;14326;50.794;6.060;2023-06-14T20:29:58;8.88;;;3.00;;
26718;SDS011;14326;50.794;6.060;2023-06-14T20:32:24;12.98;;;3.40;;
26718;SDS011;14326;50.794;6.060;2023-06-14T20:34:52;12.60;;;3.40;;
26718;SDS011;14326;50.794;6.060;2023-06-14T20:37:18;8.30;;;3.20;;
26718;SDS011;14326;50.794;6.060;2023-06-14T20:39:46;11.80;;;3.28;;
26718;SDS011;14326;50.794;6.060;2023-06-14T20:42:13;13.43;;;3.80;;
26718;SDS011;14326;50.794;6.060;2023-06-14T20:44:40;10.27;;;3.53;;
26718;SDS011;14326;50.794;6.060;2023-06-14T20:47:07;9.98;;;3.50;;
26718;SDS011;14326;50.794;6.060;2023-06-14T20:49:37;10.35;;;3.42;;
26718;SDS011;14326;50.794;6.060;2023-06-14T20:52:06;9.80;;;3.60;;
26718;SDS011;14326;50.794;6.060;2023-06-14T20:54:32;10.48;;;3.45;;
26718;SDS011;14326;50.794;6.060;2023-06-14T20:57:03;10.35;;;3.33;;
26718;SDS011;14326;50.794;6.060;2023-06-14T20:59:30;8.77;;;3.40;;
26718;SDS011;14326;50.794;6.060;2023-06-14T21:01:56;9.20;;;3.05;;
26718;SDS011;14326;50.794;6.060;2023-06-14T21:04:22;7.82;;;3.10;;
26718;SDS011;14326;50.794;6.060;2023-06-14T21:06:49;11.13;;;3.20;;
26718;SDS011;14326;50.794;6.060;2023-06-14T21:09:15;10.52;;;3.30;;
26718;SDS011;14326;50.794;6.060;2023-06-14T21:11:42;10.38;;;3.40;;
26718;SDS011;14326;50.794;6.060;2023-06-14T21:14:10;10.15;;;3.42;;
26718;SDS011;14326;50.794;6.060;2023-06-14T21:16:37;10.05;;;3.35;;
26718;SDS011;14326;50.794;6.060;2023-06-14T21:19:08;11.40;;;3.30;;
26718;SDS011;14326;50.794;6.060;2023-06-14T21:21:37;13.40;;;3.35;;
26718;SDS011;14326;50.794;6.060;2023-06-14T21:24:19;10.40;;;3.55;;
26718;SDS011;14326;50.794;6.060;2023-06-14T21:26:50;11.23;;;3.25;;
26718;SDS011;14326;50.794;6.060;2023-06-14T21:29:18;9.37;;;3.27;;
26718;SDS011;14326;50.794;6.060;2023-06-14T21:31:44;10.05;;;3.22;;
26718;SDS011;14326;50.794;6.060;2023-06-14T21:34:14;10.38;;;3.50;;
26718;SDS011;14326;50.794;6.060;2023-06-14T21:36:40;10.57;;;3.70;;
26718;SDS011;14326;50.794;6.060;2023-06-14T21:39:07;11.18;;;3.95;;
26718;SDS011;14326;50.794;6.060;2023-06-14T21:41:33;8.70;;;3.42;;
26718;SDS011;14326;50.794;6.060;2023-06-14T21:44:03;12.40;;;3.90;;
26718;SDS011;14326;50.794;6.060;2023-06-14T21:46:30;8.33;;;3.17;;
26718;SDS011;14326;50.794;6.060;2023-06-14T21:48:57;10.02;;;3.30;;
26718;SDS011;14326;50.794;6.060;2023-06-14T21:51:23;11.27;;;3.50;;
26718;SDS011;14326;50.794;6.060;2023-06-14T21:53:50;10.77;;;3.63;;
26718;SDS011;14326;50.794;6.060;2023-06-14T21:56:16;9.77;;;3.03;;
26718;SDS011;14326;50.794;6.060;2023-06-14T21:58:43;10.35;;;3.22;;
26718;SDS011;14326;50.794;6.060;2023-06-14T22:01:10;8.38;;;3.40;;
26718;SDS011;14326;50.794;6.060;2023-06-14T22:03:37;11.40;;;3.30;;
26718;SDS011;14326;50.794;6.060;2023-06-14T22:06:04;10.00;;;3.25;;
26718;SDS011;14326;50.794;6.060;2023-06-14T22:08:32;12.77;;;3.67;;
26718;SDS011;14326;50.794;6.060;2023-06-14T22:10:58;9.95;;;3.53;;
26718;SDS011;14326;50.794;6.060;2023-06-14T22:13:26;11.48;;;4.10;;
26718;SDS011;14326;50.794;6.060;2023-06-14T22:15:54;9.30;;;3.35;;
26718;SDS011;14326;50.794;6.060;2023-06-14T22:18:30;8.55;;;3.42;;
26718;SDS011;14326;50.794;6.060;2023-06-14T22:21:02;11.95;;;3.90;;
26718;SDS011;14326;50.794;6.060;2023-06-14T22:23:34;10.95;;;3.70;;
26718;SDS011;14326;50.794;6.060;2023-06-14T22:26:15;9.05;;;3.65;;
26718;SDS011;14326;50.794;6.060;2023-06-14T22:28:43;9.57;;;3.78;;
26718;SDS011;14326;50.794;6.060;2023-06-14T22:31:10;10.23;;;3.50;;
26718;SDS011;14326;50.794;6.060;2023-06-14T22:33:38;9.73;;;3.60;;
26718;SDS011;14326;50.794;6.060;2023-06-14T22:36:08;10.20;;;3.40;;
26718;SDS011;14326;50.794;6.060;2023-06-14T22:38:35;11.57;;;3.53;;
26718;SDS011;14326;50.794;6.060;2023-06-14T22:41:02;11.40;;;3.60;;
26718;SDS011;14326;50.794;6.060;2023-06-14T22:43:32;10.52;;;3.90;;
26718;SDS011;14326;50.794;6.060;2023-06-14T22:46:10;9.63;;;3.63;;
26718;SDS011;14326;50.794;6.060;2023-06-14T22:48:44;9.98;;;4.03;;
26718;SDS011;14326;50.794;6.060;2023-06-14T22:51:12;15.30;;;3.90;;
26718;SDS011;14326;50.794;6.060;2023-06-14T22:53:39;12.48;;;4.43;;
26718;SDS011;14326;50.794;6.060;2023-06-14T22:56:06;11.20;;;3.90;;
26718;SDS011;14326;50.794;6.060;2023-06-14T22:58:42;11.20;;;4.00;;
26718;SDS011;14326;50.794;6.060;2023-06-14T23:01:12;12.23;;;4.10;;
26718;SDS011;14326;50.794;6.060;2023-06-14T23:03:39;9.68;;;3.70;;
26718;SDS011;14326;50.794;6.060;2023-06-14T23:06:06;13.75;;;3.90;;
26718;SDS011;14326;50.794;6.060;2023-06-14T23:08:34;13.98;;;4.40;;
26718;SDS011;14326;50.794;6.060;2023-06-14T23:11:01;10.88;;;4.07;;
26718;SDS011;14326;50.794;6.060;2023-06-14T23:13:28;11.07;;;3.92;;
26718;SDS011;14326;50.794;6.060;2023-06-14T23:15:58;10.02;;;3.65;;
26718;SDS011;14326;50.794;6.060;2023-06-14T23:18:25;9.85;;;3.88;;
26718;SDS011;14326;50.794;6.060;2023-06-14T23:20:52;11.23;;;4.07;;
26718;SDS011;14326;50.794;6.060;2023-06-14T23:23:18;11.18;;;3.83;;
26718;SDS011;14326;50.794;6.060;2023-06-14T23:25:46;9.60;;;3.90;;
26718;SDS011;14326;50.794;6.060;2023-06-14T23:28:13;11.55;;;4.07;;
26718;SDS011;14326;50.794;6.060;2023-06-14T23:30:42;12.10;;;3.77;;
26718;SDS011;14326;50.794;6.060;2023-06-14T23:33:10;12.82;;;4.10;;
26718;SDS011;14326;50.794;6.060;2023-06-14T23:35:38;9.23;;;3.80;;
26718;SDS011;14326;50.794;6.060;2023-06-14T23:38:05;11.52;;;3.97;;
26718;SDS011;14326;50.794;6.060;2023-06-14T23:40:37;10.38;;;4.00;;
26718;SDS011;14326;50.794;6.060;2023-06-14T23:43:05;10.32;;;3.92;;
26718;SDS011;14326;50.794;6.060;2023-06-14T23:45:32;11.43;;;4.30;;
26718;SDS011;14326;50.794;6.060;2023-06-14T23:47:59;11.88;;;4.00;;
26718;SDS011;14326;50.794;6.060;2023-06-14T23:50:26;12.38;;;4.15;;
26718;SDS011;14326;50.794;6.060;2023-06-14T23:53:04;9.93;;;4.07;;
26718;SDS011;14326;50.794;6.060;2023-06-14T23:55:33;11.38;;;4.03;;
26718;SDS011;14326;50.794;6.060;2023-06-14T23:58:02;11.98;;;4.10;;
